KPYX

Details ICAO KPYX
Name PERRYTON OCHILTREE CO
Region United States
Timezone America/Chicago (UTC-6.0)
Plans Departing 1
Arriving 3
Stats Elevation 2,918 ft / 889 m (AMSL)
Location 36.412181° -100.752265°
Runways 2
Magnetic Variation 5.684° E
Sunrise 2017-12-17 13:50:14 UTC / 2017-12-17 07:50:14 Local
Sunset 2017-12-17 23:31:02 UTC / 2017-12-17 17:31:02 Local
Advertisement - Login to hide

Runways

ID Width Length Bearing (true) Bearing (mag) Surface Threshold Offset Overrun Length
04 144 ft / 44 m 3,279 ft / 1,000 m 50.95° 45.27° Grass 0 ft / 0 m 0 ft / 0 m
17 75 ft / 23 m 5,713 ft / 1,741 m 179.87° 174.19° Asphalt 0 ft / 0 m 0 ft / 0 m
22 144 ft / 44 m 3,279 ft / 1,000 m 230.96° 225.28° Grass 0 ft / 0 m 0 ft / 0 m
35 75 ft / 23 m 5,713 ft / 1,741 m 359.87° 354.19° Asphalt 0 ft / 0 m 0 ft / 0 m

Map

Weather


0- 5 10 15 20 25 30 35+ Temperature / ° C

Clouds and Precipitation
Forecast for 2017-12-17 18:00 UTC. Updated an hour ago

Ground ~20,000 ft ~40,000 ft Winds

METAR

KPYX 171435Z AUTO 34016G20KT 10SM SCT005 M02/M03 A2996 RMK AO2 T10171035

TAF

Not found

Frequencies

Recorded 118.17 MHz AWOS 3
Unicom 122.80 MHz CTAF/UNICOM
Warning: Do not use this data for real-world aviation or navigation. No guarantee of current accuracy is given.